createdAt,value
2017-02-11T00:01:04.893Z,1021.59
2017-02-11T00:02:18.217Z,1021.56
2017-02-11T00:03:31.262Z,1021.6
2017-02-11T00:04:44.342Z,1021.71
2017-02-11T00:05:57.434Z,1021.59
2017-02-11T00:07:10.523Z,1021.65
2017-02-11T00:08:23.600Z,1021.63
2017-02-11T00:09:36.664Z,1021.64
2017-02-11T00:10:49.717Z,1021.62
2017-02-11T00:12:02.825Z,1021.67
2017-02-11T00:13:15.501Z,1021.65
2017-02-11T00:14:28.217Z,1021.68
2017-02-11T00:15:41.269Z,1021.67
2017-02-11T00:16:53.897Z,1021.68
2017-02-11T00:18:06.961Z,1021.7
2017-02-11T00:19:19.305Z,1021.71
2017-02-11T00:20:32.370Z,1021.69
2017-02-11T00:21:45.450Z,1021.68
2017-02-11T00:22:58.497Z,1021.78
2017-02-11T00:24:11.436Z,1021.78
2017-02-11T00:25:24.598Z,1021.76
2017-02-11T00:26:37.633Z,1021.74
2017-02-11T00:27:50.639Z,1021.76
2017-02-11T00:29:03.299Z,1021.69
2017-02-11T00:30:16.313Z,1021.76
2017-02-11T00:31:29.416Z,1021.71
2017-02-11T00:32:42.517Z,1021.72
2017-02-11T00:33:55.580Z,1021.63
2017-02-11T00:35:08.633Z,1021.63
2017-02-11T00:36:21.298Z,1021.66
2017-02-11T00:37:34.399Z,1021.64
2017-02-11T00:38:47.495Z,1021.64
2017-02-11T00:40:00.178Z,1021.65
2017-02-11T00:41:12.835Z,1021.66
2017-02-11T00:42:25.877Z,1021.62
2017-02-11T00:43:38.901Z,1021.57
2017-02-11T00:44:51.943Z,1021.55
2017-02-11T00:46:04.902Z,1021.57
2017-02-11T00:47:17.561Z,1021.54
2017-02-11T00:48:30.225Z,1021.54
2017-02-11T00:49:43.259Z,1021.53
2017-02-11T00:50:55.957Z,1021.54
2017-02-11T00:52:09.074Z,1021.6
2017-02-11T00:53:22.172Z,1021.53
2017-02-11T00:54:35.291Z,1021.57
2017-02-11T00:55:48.395Z,1021.57
2017-02-11T00:57:01.729Z,1021.57
2017-02-11T00:58:14.791Z,1021.54
2017-02-11T00:59:27.794Z,1021.57
2017-02-11T01:00:40.888Z,1021.54
2017-02-11T01:01:53.989Z,1021.53
2017-02-11T01:03:06.331Z,1021.52
2017-02-11T01:04:19.014Z,1021.53
2017-02-11T01:05:31.668Z,1021.54
2017-02-11T01:06:44.711Z,1021.52
2017-02-11T01:07:57.731Z,1021.51
2017-02-11T01:09:10.023Z,1021.54
2017-02-11T01:10:22.715Z,1021.54
2017-02-11T01:11:35.708Z,1021.44
2017-02-11T01:12:48.750Z,1021.48
2017-02-11T01:14:01.826Z,1021.5
2017-02-11T01:15:14.113Z,1021.53
2017-02-11T01:16:26.808Z,1021.46
2017-02-11T01:17:39.973Z,1021.47
2017-02-11T01:18:53.001Z,1021.43
2017-02-11T01:20:06.122Z,1021.5
2017-02-11T01:21:19.181Z,1021.43
2017-02-11T01:22:32.275Z,1021.42
2017-02-11T01:23:45.316Z,1021.41
2017-02-11T01:24:58.009Z,1021.35
2017-02-11T01:26:10.307Z,1021.37
2017-02-11T01:27:23.014Z,1021.39
2017-02-11T01:28:36.068Z,1021.39
2017-02-11T01:29:48.800Z,1021.35
2017-02-11T01:31:01.461Z,1021.29
2017-02-11T01:32:14.602Z,1021.38
2017-02-11T01:33:27.651Z,1021.38
2017-02-11T01:34:40.690Z,1021.39
2017-02-11T01:35:53.753Z,1021.37
2017-02-11T01:37:06.806Z,1021.32
2017-02-11T01:38:19.901Z,1021.35
2017-02-11T01:39:32.917Z,1021.31
2017-02-11T01:40:46.232Z,1021.29
2017-02-11T01:41:58.888Z,1021.22
2017-02-11T01:43:11.665Z,1021.23
2017-02-11T01:44:24.355Z,1021.25
2017-02-11T01:45:37.433Z,1021.16
2017-02-11T01:46:50.505Z,1021.19
2017-02-11T01:48:03.553Z,1021.17
2017-02-11T01:49:16.572Z,1021.23
2017-02-11T01:50:29.233Z,1021.2
2017-02-11T01:51:42.301Z,1021.19
2017-02-11T01:52:55.341Z,1021.18
2017-02-11T01:54:08.481Z,1021.18
2017-02-11T01:55:21.150Z,1021.22
2017-02-11T01:56:34.239Z,1021.21
2017-02-11T01:57:47.250Z,1021.19
2017-02-11T01:59:00.320Z,1021.27
2017-02-11T02:00:13.422Z,1021.25
2017-02-11T02:01:26.180Z,1021.24
2017-02-11T02:02:39.201Z,1021.21
2017-02-11T02:03:52.215Z,1021.21
2017-02-11T02:05:05.305Z,1021.2
2017-02-11T02:06:18.313Z,1021.24
2017-02-11T02:07:31.452Z,1021.22
2017-02-11T02:08:44.481Z,1021.19
2017-02-11T02:09:57.532Z,1021.25
2017-02-11T02:11:10.553Z,1021.24
2017-02-11T02:12:23.619Z,1021.27
2017-02-11T02:13:36.890Z,1021.25
2017-02-11T02:14:50.013Z,1021.29
2017-02-11T02:16:02.693Z,1021.28
2017-02-11T02:17:15.427Z,1021.3
2017-02-11T02:18:28.426Z,1021.25
2017-02-11T02:19:41.125Z,1021.26
2017-02-11T02:20:54.215Z,1021.31
2017-02-11T02:22:07.259Z,1021.23
2017-02-11T02:23:19.909Z,1021.26
2017-02-11T02:24:33.020Z,1021.26
2017-02-11T02:25:46.104Z,1021.22
2017-02-11T02:26:59.126Z,1021.18
2017-02-11T02:28:11.815Z,1021.24
2017-02-11T02:29:24.873Z,1021.17
2017-02-11T02:30:37.956Z,1021.22
2017-02-11T02:31:51.099Z,1021.18
2017-02-11T02:33:03.742Z,1021.19
2017-02-11T02:34:16.424Z,1021.21
2017-02-11T02:35:29.479Z,1021.17
2017-02-11T02:36:42.547Z,1021.19
2017-02-11T02:37:55.262Z,1021.22
2017-02-11T02:39:08.359Z,1021.27
2017-02-11T02:40:20.706Z,1021.22
2017-02-11T02:41:33.787Z,1021.16
2017-02-11T02:42:46.809Z,1021.22
2017-02-11T02:43:59.939Z,1021.24
2017-02-11T02:45:12.637Z,1021.28
2017-02-11T02:46:25.905Z,1021.24
2017-02-11T02:47:38.987Z,1021.32
2017-02-11T02:48:52.077Z,1021.26
2017-02-11T02:50:04.742Z,1021.27
2017-02-11T02:51:17.836Z,1021.3
2017-02-11T02:52:30.919Z,1021.32
2017-02-11T02:53:44.008Z,1021.33
2017-02-11T02:54:57.051Z,1021.33
2017-02-11T02:56:10.053Z,1021.32
2017-02-11T02:57:23.145Z,1021.36
2017-02-11T02:58:36.250Z,1021.29
2017-02-11T02:59:49.334Z,1021.26
2017-02-11T03:01:02.392Z,1021.28
2017-02-11T03:02:15.443Z,1021.28
2017-02-11T03:03:28.510Z,1021.26
2017-02-11T03:04:41.568Z,1021.26
2017-02-11T03:05:54.639Z,1021.23
2017-02-11T03:07:07.741Z,1021.21
2017-02-11T03:08:20.792Z,1021.27
2017-02-11T03:09:33.854Z,1021.33
2017-02-11T03:10:46.874Z,1021.36
2017-02-11T03:11:59.925Z,1021.3
2017-02-11T03:13:12.068Z,1021.32
2017-02-11T03:14:25.128Z,1021.38
2017-02-11T03:15:38.268Z,1021.36
2017-02-11T03:16:51.345Z,1021.35
2017-02-11T03:18:04.447Z,1021.34
2017-02-11T03:19:16.719Z,1021.37
2017-02-11T03:20:29.757Z,1021.36
2017-02-11T03:21:42.786Z,1021.36
2017-02-11T03:22:55.818Z,1021.36
2017-02-11T03:24:08.909Z,1021.32
2017-02-11T03:25:21.955Z,1021.3
2017-02-11T03:26:35.062Z,1021.27
2017-02-11T03:27:48.101Z,1021.33
2017-02-11T03:29:01.212Z,1021.35
2017-02-11T03:30:13.882Z,1021.37
2017-02-11T03:31:26.978Z,1021.26
2017-02-11T03:32:39.968Z,1021.27
2017-02-11T03:33:52.704Z,1021.3
2017-02-11T03:35:05.790Z,1021.31
2017-02-11T03:36:18.935Z,1021.29
2017-02-11T03:37:31.962Z,1021.26
2017-02-11T03:38:45.109Z,1021.26
2017-02-11T03:39:58.425Z,1021.27
2017-02-11T03:41:10.720Z,1021.3
2017-02-11T03:42:23.808Z,1021.28
2017-02-11T03:43:36.856Z,1021.31
2017-02-11T03:44:49.844Z,1021.25
2017-02-11T03:46:02.871Z,1021.31
2017-02-11T03:47:15.562Z,1021.29
2017-02-11T03:48:28.569Z,1021.31
2017-02-11T03:49:41.646Z,1021.26
2017-02-11T03:50:54.668Z,1021.25
2017-02-11T03:52:07.734Z,1021.28
2017-02-11T03:53:20.815Z,1021.23
2017-02-11T03:54:33.937Z,1021.18
2017-02-11T03:55:47.008Z,1021.21
2017-02-11T03:56:59.274Z,1021.25
2017-02-11T03:58:12.356Z,1021.31
2017-02-11T03:59:25.045Z,1021.29
2017-02-11T04:00:38.105Z,1021.3
2017-02-11T04:01:51.127Z,1021.28
2017-02-11T04:03:03.764Z,1021.27
2017-02-11T04:04:16.135Z,1021.29
2017-02-11T04:05:29.225Z,1021.26
2017-02-11T04:06:42.316Z,1021.28
2017-02-11T04:07:55.391Z,1021.27
2017-02-11T04:09:08.052Z,1021.2
2017-02-11T04:10:21.155Z,1021.24
2017-02-11T04:11:34.236Z,1021.2
2017-02-11T04:12:47.295Z,1021.21
2017-02-11T04:14:00.303Z,1021.24
2017-02-11T04:15:13.336Z,1021.19
2017-02-11T04:16:26.439Z,1021.25
2017-02-11T04:17:39.533Z,1021.2
2017-02-11T04:18:52.584Z,1021.17
2017-02-11T04:20:05.643Z,1021.15
2017-02-11T04:21:18.325Z,1021.11
2017-02-11T04:22:31.419Z,1021.15
2017-02-11T04:23:44.520Z,1021.2
2017-02-11T04:24:57.597Z,1021.17
2017-02-11T04:26:10.269Z,1021.17
2017-02-11T04:27:23.322Z,1021.13
2017-02-11T04:28:36.440Z,1021.16
2017-02-11T04:29:49.533Z,1021.12
2017-02-11T04:31:02.614Z,1021.15
2017-02-11T04:32:15.264Z,1021.13
2017-02-11T04:33:28.330Z,1021.11
2017-02-11T04:34:41.659Z,1021.14
2017-02-11T04:35:54.693Z,1021.15
2017-02-11T04:37:07.748Z,1021.18
2017-02-11T04:38:20.003Z,1021.2
2017-02-11T04:39:32.725Z,1021.23
2017-02-11T04:40:45.763Z,1021.2
2017-02-11T04:41:58.867Z,1021.21
2017-02-11T04:43:11.525Z,1021.26
2017-02-11T04:44:24.665Z,1021.21
2017-02-11T04:45:37.695Z,1021.19
2017-02-11T04:46:50.773Z,1021.19
2017-02-11T04:48:03.920Z,1021.19
2017-02-11T04:49:16.978Z,1021.18
2017-02-11T04:50:30.080Z,1021.16
2017-02-11T04:51:43.450Z,1021.24
2017-02-11T04:52:56.484Z,1021.19
2017-02-11T04:54:09.217Z,1021.15
2017-02-11T04:55:22.291Z,1021.16
2017-02-11T04:56:35.315Z,1021.21
2017-02-11T04:57:48.373Z,1021.21
2017-02-11T04:59:01.040Z,1021.23
2017-02-11T05:00:13.731Z,1021.21
2017-02-11T05:01:26.404Z,1021.19
2017-02-11T05:02:39.526Z,1021.17
2017-02-11T05:03:52.641Z,1021.18
2017-02-11T05:05:05.744Z,1021.22
2017-02-11T05:06:18.019Z,1021.17
2017-02-11T05:07:31.155Z,1021.2
2017-02-11T05:08:44.254Z,1021.17
2017-02-11T05:09:57.328Z,1021.17
2017-02-11T05:11:10.360Z,1021.19
2017-02-11T05:12:23.412Z,1021.18
2017-02-11T05:13:36.459Z,1021.2
2017-02-11T05:14:49.505Z,1021.14
2017-02-11T05:16:02.625Z,1021.14
2017-02-11T05:17:15.282Z,1021.16
2017-02-11T05:18:28.366Z,1021.15
2017-02-11T05:19:41.406Z,1021.17
2017-02-11T05:20:54.507Z,1021.18
2017-02-11T05:22:07.559Z,1021.14
2017-02-11T05:23:20.262Z,1021.16
2017-02-11T05:24:33.339Z,1021.15
2017-02-11T05:25:46.385Z,1021.14
2017-02-11T05:26:59.481Z,1021.13
2017-02-11T05:28:12.527Z,1021.15
2017-02-11T05:29:25.204Z,1021.16
2017-02-11T05:30:38.300Z,1021.15
2017-02-11T05:31:51.328Z,1021.19
2017-02-11T05:33:04.426Z,1021.17
2017-02-11T05:34:17.539Z,1021.16
2017-02-11T05:35:30.560Z,1021.14
2017-02-11T05:36:43.598Z,1021.18
2017-02-11T05:37:56.665Z,1021.15
2017-02-11T05:39:09.350Z,1021.2
2017-02-11T05:40:22.305Z,1021.18
2017-02-11T05:41:35.412Z,1021.24
2017-02-11T05:42:48.503Z,1021.24
2017-02-11T05:44:01.568Z,1021.2
2017-02-11T05:45:14.680Z,1021.21
2017-02-11T05:46:27.786Z,1021.25
2017-02-11T05:47:40.805Z,1021.23
2017-02-11T05:48:53.864Z,1021.26
2017-02-11T05:50:06.536Z,1021.28
2017-02-11T05:51:19.268Z,1021.3
2017-02-11T05:52:32.338Z,1021.25
2017-02-11T05:53:45.466Z,1021.31
2017-02-11T05:54:58.469Z,1021.26
2017-02-11T05:56:10.763Z,1021.26
2017-02-11T05:57:23.853Z,1021.26
2017-02-11T05:58:36.938Z,1021.2
2017-02-11T05:59:50.028Z,1021.22
2017-02-11T06:01:03.057Z,1021.27
2017-02-11T06:02:16.137Z,1021.26
2017-02-11T06:03:29.206Z,1021.31
2017-02-11T06:04:42.315Z,1021.27
2017-02-11T06:05:55.053Z,1021.32
2017-02-11T06:07:07.681Z,1021.3
2017-02-11T06:08:20.779Z,1021.33
2017-02-11T06:09:33.886Z,1021.39
2017-02-11T06:10:46.960Z,1021.34
2017-02-11T06:12:00.017Z,1021.39
2017-02-11T06:13:12.313Z,1021.4
2017-02-11T06:14:25.396Z,1021.37
2017-02-11T06:15:38.449Z,1021.38
2017-02-11T06:16:51.487Z,1021.43
2017-02-11T06:18:04.491Z,1021.4
2017-02-11T06:19:17.545Z,1021.41
2017-02-11T06:20:30.707Z,1021.47
2017-02-11T06:21:43.781Z,1021.4
2017-02-11T06:22:56.891Z,1021.43
2017-02-11T06:24:09.948Z,1021.42
2017-02-11T06:25:22.983Z,1021.47
2017-02-11T06:26:35.988Z,1021.44
2017-02-11T06:27:48.680Z,1021.4
2017-02-11T06:29:01.752Z,1021.41
2017-02-11T06:30:14.399Z,1021.45
2017-02-11T06:31:27.117Z,1021.48
2017-02-11T06:32:40.220Z,1021.46
2017-02-11T06:33:53.298Z,1021.5
2017-02-11T06:35:06.345Z,1021.5
2017-02-11T06:36:19.003Z,1021.49
2017-02-11T06:37:32.122Z,1021.61
2017-02-11T06:38:45.187Z,1021.52
2017-02-11T06:39:58.259Z,1021.54
2017-02-11T06:41:11.342Z,1021.58
2017-02-11T06:42:24.450Z,1021.55
2017-02-11T06:43:37.521Z,1021.56
2017-02-11T06:44:50.627Z,1021.56
2017-02-11T06:46:03.932Z,1021.54
2017-02-11T06:47:16.975Z,1021.58
2017-02-11T06:48:30.053Z,1021.6
2017-02-11T06:49:43.175Z,1021.58
2017-02-11T06:50:55.845Z,1021.64
2017-02-11T06:52:08.179Z,1021.65
2017-02-11T06:53:20.832Z,1021.6
2017-02-11T06:54:33.889Z,1021.64
2017-02-11T06:55:46.980Z,1021.65
2017-02-11T06:57:00.015Z,1021.63
2017-02-11T06:58:12.698Z,1021.64
2017-02-11T06:59:25.366Z,1021.66
2017-02-11T07:00:38.396Z,1021.68
2017-02-11T07:01:51.416Z,1021.62
2017-02-11T07:03:04.087Z,1021.64
2017-02-11T07:04:16.764Z,1021.65
2017-02-11T07:05:29.444Z,1021.66
2017-02-11T07:06:42.451Z,1021.67
2017-02-11T07:07:55.507Z,1021.64
2017-02-11T07:09:08.173Z,1021.69
2017-02-11T07:10:20.861Z,1021.74
2017-02-11T07:11:33.975Z,1021.7
2017-02-11T07:12:47.280Z,1021.73
2017-02-11T07:14:00.305Z,1021.77
2017-02-11T07:15:13.447Z,1021.79
2017-02-11T07:16:26.515Z,1021.77
2017-02-11T07:17:39.662Z,1021.8
2017-02-11T07:18:52.732Z,1021.83
2017-02-11T07:20:05.795Z,1021.78
2017-02-11T07:21:18.903Z,1021.8
2017-02-11T07:22:31.595Z,1021.8
2017-02-11T07:23:44.652Z,1021.86
2017-02-11T07:24:57.740Z,1021.83
2017-02-11T07:26:10.440Z,1021.87
2017-02-11T07:27:23.153Z,1021.87
2017-02-11T07:28:36.222Z,1021.92
2017-02-11T07:29:49.271Z,1021.89
2017-02-11T07:31:02.403Z,1021.87
2017-02-11T07:32:15.142Z,1021.94
2017-02-11T07:33:27.833Z,1021.91
2017-02-11T07:34:40.903Z,1021.94
2017-02-11T07:35:53.924Z,1021.98
2017-02-11T07:37:06.564Z,1021.99
2017-02-11T07:38:19.234Z,1021.89
2017-02-11T07:39:31.880Z,1021.96
2017-02-11T07:40:44.983Z,1021.93
2017-02-11T07:41:58.021Z,1021.97
2017-02-11T07:43:11.082Z,1021.92
2017-02-11T07:44:24.121Z,1021.98
2017-02-11T07:45:37.415Z,1022.02
2017-02-11T07:46:50.550Z,1022.02
2017-02-11T07:48:03.582Z,1022.05
2017-02-11T07:49:16.271Z,1022.04
2017-02-11T07:50:28.989Z,1022.02
2017-02-11T07:51:42.014Z,1022.01
2017-02-11T07:52:55.099Z,1022.06
2017-02-11T07:54:08.217Z,1022.04
2017-02-11T07:55:20.926Z,1022.08
2017-02-11T07:56:34.048Z,1022.07
2017-02-11T07:57:47.125Z,1022.11
2017-02-11T07:59:00.154Z,1022.04
2017-02-11T08:00:13.268Z,1022.07
2017-02-11T08:01:26.373Z,1022.11
2017-02-11T08:02:39.489Z,1022.06
2017-02-11T08:03:52.580Z,1022.09
2017-02-11T08:05:05.711Z,1022.07
2017-02-11T08:06:18.796Z,1022.08
2017-02-11T08:07:31.843Z,1021.99
2017-02-11T08:08:44.876Z,1022.05
2017-02-11T08:09:57.924Z,1022.08
2017-02-11T08:11:11.047Z,1022.14
2017-02-11T08:12:23.676Z,1022.11
2017-02-11T08:13:36.798Z,1022.11
2017-02-11T08:14:49.844Z,1022.09
2017-02-11T08:16:02.939Z,1022.1
2017-02-11T08:17:16.010Z,1022.11
2017-02-11T08:18:29.043Z,1022.06
2017-02-11T08:19:42.093Z,1022.09
2017-02-11T08:20:55.175Z,1022.11
2017-02-11T08:22:08.293Z,1022.14
2017-02-11T08:23:21.601Z,1022.09
2017-02-11T08:24:34.651Z,1022.09
2017-02-11T08:25:47.779Z,1022.08
2017-02-11T08:27:00.808Z,1022.14
2017-02-11T08:28:13.897Z,1022.1
2017-02-11T08:29:26.969Z,1022.1
2017-02-11T08:30:39.622Z,1022.13
2017-02-11T08:31:52.710Z,1022.11
2017-02-11T08:33:05.738Z,1022.12
2017-02-11T08:34:18.777Z,1022.09
2017-02-11T08:35:31.824Z,1022.12
2017-02-11T08:36:44.897Z,1022.09
2017-02-11T08:37:57.978Z,1022.14
2017-02-11T08:39:11.059Z,1022.09
2017-02-11T08:40:23.359Z,1022.14
2017-02-11T08:41:36.427Z,1022.08
2017-02-11T08:42:49.497Z,1022.02
2017-02-11T08:44:02.562Z,1022.02
2017-02-11T08:45:15.275Z,1022.03
2017-02-11T08:46:28.311Z,1022.01
2017-02-11T08:47:41.370Z,1021.99
2017-02-11T08:48:54.402Z,1021.99
2017-02-11T08:50:07.484Z,1021.91
2017-02-11T08:51:20.168Z,1021.99
2017-02-11T08:52:33.244Z,1022.03
2017-02-11T08:53:46.306Z,1022.03
2017-02-11T08:54:58.937Z,1022.07
2017-02-11T08:56:12.020Z,1022.05
2017-02-11T08:57:25.041Z,1022.08
2017-02-11T08:58:38.150Z,1022.07
2017-02-11T08:59:51.283Z,1022.1
2017-02-11T09:01:04.379Z,1022.16
2017-02-11T09:02:17.382Z,1022.19
2017-02-11T09:03:30.481Z,1022.15
2017-02-11T09:04:43.548Z,1022.15
2017-02-11T09:05:56.235Z,1022.18
2017-02-11T09:07:08.890Z,1022.12
2017-02-11T09:08:21.518Z,1022.17
2017-02-11T09:09:34.656Z,1022.15
2017-02-11T09:10:47.654Z,1022.18
2017-02-11T09:12:00.717Z,1022.19
2017-02-11T09:13:13.412Z,1022.14
2017-02-11T09:14:26.416Z,1022.21
2017-02-11T09:15:39.536Z,1022.19
2017-02-11T09:16:52.564Z,1022.22
2017-02-11T09:18:05.639Z,1022.21
2017-02-11T09:19:18.752Z,1022.3
2017-02-11T09:20:31.426Z,1022.14
2017-02-11T09:21:44.490Z,1022.23
2017-02-11T09:22:57.519Z,1022.22
2017-02-11T09:24:10.632Z,1022.25
2017-02-11T09:25:23.685Z,1022.23
2017-02-11T09:26:36.767Z,1022.23
2017-02-11T09:27:49.807Z,1022.29
2017-02-11T09:29:02.923Z,1022.29
2017-02-11T09:30:16.006Z,1022.3
2017-02-11T09:31:29.100Z,1022.26
2017-02-11T09:32:42.232Z,1022.27
2017-02-11T09:33:55.267Z,1022.29
2017-02-11T09:35:08.344Z,1022.26
2017-02-11T09:36:21.398Z,1022.25
2017-02-11T09:37:34.450Z,1022.26
2017-02-11T09:38:47.533Z,1022.23
2017-02-11T09:40:00.633Z,1022.29
2017-02-11T09:41:12.124Z,1022.3
2017-02-11T09:42:25.211Z,1022.32
2017-02-11T09:43:38.279Z,1022.3
2017-02-11T09:44:51.323Z,1022.31
2017-02-11T09:46:04.394Z,1022.38
2017-02-11T09:47:16.687Z,1022.38
2017-02-11T09:48:29.762Z,1022.41
2017-02-11T09:49:42.771Z,1022.36
2017-02-11T09:50:55.817Z,1022.42
2017-02-11T09:52:08.914Z,1022.35
2017-02-11T09:53:22.017Z,1022.32
2017-02-11T09:54:34.714Z,1022.34
2017-02-11T09:55:47.825Z,1022.37
2017-02-11T09:57:00.958Z,1022.37
2017-02-11T09:58:13.985Z,1022.33
2017-02-11T09:59:27.142Z,1022.36
2017-02-11T10:01:01.999Z,1022.36
2017-02-11T10:02:15.072Z,1022.34
2017-02-11T10:03:27.723Z,1022.37
2017-02-11T10:04:40.427Z,1022.28
2017-02-11T10:05:53.547Z,1022.31
2017-02-11T10:07:06.290Z,1022.33
2017-02-11T10:08:18.981Z,1022.3
2017-02-11T10:09:31.648Z,1022.3
2017-02-11T10:10:44.706Z,1022.33
2017-02-11T10:11:57.807Z,1022.26
2017-02-11T10:13:10.859Z,1022.32
2017-02-11T10:14:24.038Z,1022.28
2017-02-11T10:15:36.694Z,1022.3
2017-02-11T10:16:49.754Z,1022.28
2017-02-11T10:18:02.812Z,1022.32
2017-02-11T10:19:15.546Z,1022.28
2017-02-11T10:20:28.579Z,1022.31
2017-02-11T10:21:41.670Z,1022.31
2017-02-11T10:22:55.018Z,1022.27
2017-02-11T10:24:08.054Z,1022.25
2017-02-11T10:25:20.751Z,1022.23
2017-02-11T10:26:33.474Z,1022.24
2017-02-11T10:27:46.529Z,1022.22
2017-02-11T10:28:59.621Z,1022.2
2017-02-11T10:30:12.733Z,1022.2
2017-02-11T10:31:25.431Z,1022.2
2017-02-11T10:32:38.479Z,1022.19
2017-02-11T10:33:51.539Z,1022.16
2017-02-11T10:35:04.624Z,1022.16
2017-02-11T10:36:17.656Z,1022.11
2017-02-11T10:37:30.709Z,1022.14
2017-02-11T10:38:43.855Z,1022.15
2017-02-11T10:39:56.542Z,1022.14
2017-02-11T10:41:09.579Z,1022.06
2017-02-11T10:42:22.335Z,1022.14
2017-02-11T10:43:35.382Z,1022.18
2017-02-11T10:44:48.783Z,1022.16
2017-02-11T10:46:01.882Z,1022.13
2017-02-11T10:47:14.963Z,1022.13
2017-02-11T10:48:28.048Z,1022.13
2017-02-11T10:49:41.074Z,1022.09
2017-02-11T10:50:54.250Z,1022.14
2017-02-11T10:52:07.369Z,1022.08
2017-02-11T10:53:19.679Z,1022.08
2017-02-11T10:54:32.783Z,1022.14
2017-02-11T10:55:45.922Z,1022.19
2017-02-11T10:56:58.974Z,1022.13
2017-02-11T10:58:11.666Z,1022.18
2017-02-11T10:59:24.709Z,1022.23
2017-02-11T11:00:37.812Z,1022.24
2017-02-11T11:01:51.127Z,1022.28
2017-02-11T11:03:04.198Z,1022.29
2017-02-11T11:04:17.261Z,1022.3
2017-02-11T11:05:29.915Z,1022.31
2017-02-11T11:06:42.947Z,1022.27
2017-02-11T11:07:56.061Z,1022.21
2017-02-11T11:09:09.188Z,1022.21
2017-02-11T11:10:22.272Z,1022.21
2017-02-11T11:11:34.941Z,1022.17
2017-02-11T11:12:47.957Z,1022.12
2017-02-11T11:14:01.049Z,1022.13
2017-02-11T11:15:14.181Z,1022.13
2017-02-11T11:16:27.201Z,1022.05
2017-02-11T11:17:40.509Z,1022
2017-02-11T11:18:53.596Z,1021.98
2017-02-11T11:20:06.639Z,1021.92
2017-02-11T11:21:19.360Z,1021.96
2017-02-11T11:22:32.386Z,1022
2017-02-11T11:23:45.451Z,1022.08
2017-02-11T11:24:58.527Z,1022.01
2017-02-11T11:26:11.200Z,1021.99
2017-02-11T11:27:24.265Z,1021.98
2017-02-11T11:28:37.335Z,1021.98
2017-02-11T11:29:50.452Z,1022.02
2017-02-11T11:31:03.528Z,1022.02
2017-02-11T11:32:16.610Z,1022.02
2017-02-11T11:33:29.647Z,1021.99
2017-02-11T11:34:42.765Z,1021.98
2017-02-11T11:35:55.851Z,1021.93
2017-02-11T11:37:08.899Z,1021.88
2017-02-11T11:38:21.963Z,1021.94
2017-02-11T11:39:35.230Z,1021.87
2017-02-11T11:40:48.295Z,1021.85
2017-02-11T11:42:01.372Z,1021.89
2017-02-11T11:43:14.540Z,1021.88
2017-02-11T11:44:27.268Z,1021.85
2017-02-11T11:45:40.328Z,1021.87
2017-02-11T11:46:53.399Z,1021.89
2017-02-11T11:48:06.487Z,1021.92
2017-02-11T11:49:19.539Z,1021.95
2017-02-11T11:50:32.645Z,1021.91
2017-02-11T11:51:45.683Z,1021.91
2017-02-11T11:52:58.779Z,1021.89
2017-02-11T11:54:11.477Z,1021.86
2017-02-11T11:55:24.550Z,1021.82
2017-02-11T11:56:36.870Z,1021.85
2017-02-11T11:57:49.568Z,1021.82
2017-02-11T11:59:02.650Z,1021.81
2017-02-11T12:00:15.729Z,1021.76
2017-02-11T12:01:28.803Z,1021.8
2017-02-11T12:02:41.859Z,1021.76
2017-02-11T12:03:54.948Z,1021.76
2017-02-11T12:05:08.037Z,1021.73
2017-02-11T12:06:20.334Z,1021.77
2017-02-11T12:07:33.353Z,1021.79
2017-02-11T12:08:46.382Z,1021.8
2017-02-11T12:09:59.446Z,1021.76
2017-02-11T12:11:12.141Z,1021.78
2017-02-11T12:12:24.425Z,1021.74
2017-02-11T12:13:37.094Z,1021.73
2017-02-11T12:14:50.142Z,1021.78
2017-02-11T12:16:03.242Z,1021.72
2017-02-11T12:17:15.958Z,1021.7
2017-02-11T12:18:28.692Z,1021.79
2017-02-11T12:19:41.812Z,1021.81
2017-02-11T12:20:54.839Z,1021.82
2017-02-11T12:22:07.960Z,1021.79
2017-02-11T12:23:20.200Z,1021.76
2017-02-11T12:24:32.851Z,1021.78
2017-02-11T12:25:45.893Z,1021.77
2017-02-11T12:26:59.001Z,1021.77
2017-02-11T12:28:12.060Z,1021.8
2017-02-11T12:29:25.180Z,1021.77
2017-02-11T12:30:38.209Z,1021.76
2017-02-11T12:31:51.296Z,1021.7
2017-02-11T12:33:04.359Z,1021.74
2017-02-11T12:34:17.420Z,1021.69
2017-02-11T12:35:30.435Z,1021.71
2017-02-11T12:36:43.545Z,1021.6
2017-02-11T12:37:55.883Z,1021.63
2017-02-11T12:39:08.221Z,1021.64
2017-02-11T12:40:20.892Z,1021.57
2017-02-11T12:41:34.007Z,1021.55
2017-02-11T12:42:47.002Z,1021.45
2017-02-11T12:44:00.074Z,1021.57
2017-02-11T12:45:13.202Z,1021.56
2017-02-11T12:46:26.223Z,1021.44
2017-02-11T12:47:39.294Z,1021.5
2017-02-11T12:48:52.331Z,1021.47
2017-02-11T12:50:05.053Z,1021.5
2017-02-11T12:51:18.130Z,1021.49
2017-02-11T12:52:31.184Z,1021.54
2017-02-11T12:53:44.264Z,1021.45
2017-02-11T12:54:57.352Z,1021.51
2017-02-11T12:56:10.415Z,1021.48
2017-02-11T12:57:23.117Z,1021.51
2017-02-11T12:58:36.256Z,1021.52
2017-02-11T12:59:49.320Z,1021.49
2017-02-11T13:01:02.351Z,1021.55
2017-02-11T13:02:14.970Z,1021.47
2017-02-11T13:03:27.643Z,1021.5
2017-02-11T13:04:40.693Z,1021.54
2017-02-11T13:05:53.756Z,1021.56
2017-02-11T13:07:06.834Z,1021.6
2017-02-11T13:08:19.922Z,1021.6
2017-02-11T13:09:32.943Z,1021.6
2017-02-11T13:10:45.695Z,1021.66
2017-02-11T13:11:58.716Z,1021.64
2017-02-11T13:13:11.799Z,1021.59
2017-02-11T13:14:24.870Z,1021.67
2017-02-11T13:15:37.927Z,1021.67
2017-02-11T13:16:51.013Z,1021.66
2017-02-11T13:18:03.671Z,1021.68
2017-02-11T13:19:15.997Z,1021.7
2017-02-11T13:20:28.659Z,1021.72
2017-02-11T13:21:41.402Z,1021.73
2017-02-11T13:22:54.484Z,1021.73
2017-02-11T13:24:07.548Z,1021.75
2017-02-11T13:25:20.606Z,1021.73
2017-02-11T13:26:33.696Z,1021.71
2017-02-11T13:27:46.739Z,1021.7
2017-02-11T13:28:59.805Z,1021.76
2017-02-11T13:30:12.441Z,1021.7
2017-02-11T13:31:25.138Z,1021.71
2017-02-11T13:32:38.251Z,1021.69
2017-02-11T13:33:51.320Z,1021.65
2017-02-11T13:35:04.070Z,1021.65
2017-02-11T13:36:17.114Z,1021.67
2017-02-11T13:37:30.174Z,1021.6
2017-02-11T13:38:42.844Z,1021.61
2017-02-11T13:39:55.866Z,1021.63
2017-02-11T13:41:08.912Z,1021.61
2017-02-11T13:42:22.011Z,1021.6
2017-02-11T13:43:34.646Z,1021.65
2017-02-11T13:44:47.767Z,1021.62
2017-02-11T13:46:00.838Z,1021.62
2017-02-11T13:47:13.981Z,1021.61
2017-02-11T13:48:27.081Z,1021.57
2017-02-11T13:49:40.162Z,1021.58
2017-02-11T13:50:52.478Z,1021.58
2017-02-11T13:52:05.511Z,1021.56
2017-02-11T13:53:17.862Z,1021.53
2017-02-11T13:54:30.948Z,1021.6
2017-02-11T13:55:44.053Z,1021.54
2017-02-11T13:56:57.120Z,1021.5
2017-02-11T13:58:10.204Z,1021.59
2017-02-11T13:59:23.504Z,1021.55
2017-02-11T14:00:36.271Z,1021.52
2017-02-11T14:01:49.277Z,1021.58
2017-02-11T14:03:02.437Z,1021.55
2017-02-11T14:04:14.721Z,1021.47
2017-02-11T14:05:27.756Z,1021.53
2017-02-11T14:06:40.807Z,1021.55
2017-02-11T14:07:53.856Z,1021.55
2017-02-11T14:09:06.954Z,1021.52
2017-02-11T14:10:20.125Z,1021.49
2017-02-11T14:11:33.160Z,1021.51
2017-02-11T14:12:46.212Z,1021.48
2017-02-11T14:13:59.381Z,1021.48
2017-02-11T14:15:12.503Z,1021.5
2017-02-11T14:16:25.617Z,1021.51
2017-02-11T14:17:38.648Z,1021.47
2017-02-11T14:18:51.766Z,1021.52
2017-02-11T14:20:04.859Z,1021.53
2017-02-11T14:21:17.754Z,1021.54
2017-02-11T14:22:30.820Z,1021.56
2017-02-11T14:23:43.520Z,1021.5
2017-02-11T14:24:56.231Z,1021.56
2017-02-11T14:26:08.876Z,1021.59
2017-02-11T14:27:21.898Z,1021.54
2017-02-11T14:28:35.012Z,1021.57
2017-02-11T14:29:48.035Z,1021.6
2017-02-11T14:31:01.169Z,1021.54
2017-02-11T14:32:14.188Z,1021.53
2017-02-11T14:33:27.241Z,1021.57
2017-02-11T14:34:40.318Z,1021.58
2017-02-11T14:35:53.437Z,1021.63
2017-02-11T14:37:06.209Z,1021.54
2017-02-11T14:38:19.328Z,1021.53
2017-02-11T14:39:32.063Z,1021.54
2017-02-11T14:40:45.119Z,1021.49
2017-02-11T14:41:57.807Z,1021.54
2017-02-11T14:43:10.088Z,1021.51
2017-02-11T14:44:22.806Z,1021.48
2017-02-11T14:45:35.817Z,1021.42
2017-02-11T14:46:48.930Z,1021.4